Frankenthal- Eppstein (101 m) : 19.07.2018
Datum Zeit
(MESZ)
Temp.
(2 m)
Temp.
(20 cm)
Luftfeuchte Blattnässe Nieder-
schlag
Wind Zeit
(MESZ)
[°C] [°C] [%] [%] [mm] [m/s]
19.07.2018 17:10 28.5 27.9 38 3 0.0 0.2 17:10
  17:05 28.9 28.1 38 3 0.0 0.3 17:05
  17:00 28.8 28.6 38 3 0.0 0.5 17:00
  16:55 28.9 28.7 39 3 0.0 0.8 16:55
  16:50 28.4 27.5 40 4 0.0 0.4 16:50
  16:45 28.4 28.3 38 4 0.0 0.7 16:45
  16:40 29.0 28.6 39 4 0.0 0.3 16:40
  16:35 28.9 28.7 38 4 0.0 0.8 16:35
  16:30 29.2 29.3 38 4 0.0 1.2 16:30
  16:25 29.0 29.0 39 4 0.0 0.2 16:25
  16:20 28.5 28.5 39 4 0.0 0.2 16:20
  16:15 29.1 29.0 41 4 0.0 0.5 16:15
  16:10 28.8 28.6 40 4 0.0 0.5 16:10
  16:05 28.8 29.2 39 4 0.0 0.8 16:05
  16:00 29.0 29.3 39 4 0.0 1.0 16:00
  15:55 29.0 29.3 39 4 0.0 0.8 15:55
  15:50 28.8 28.7 40 4 0.0 0.3 15:50
  15:45 29.0 28.7 41 5 0.0 0.3 15:45
  15:40 28.5 28.8 42 4 0.0 0.1 15:40
  15:35 28.4 29.3 40 4 0.0 0.9 15:35
  15:30 28.6 29.4 40 4 0.0 0.6 15:30
  15:25 28.3 28.9 39 4 0.0 0.6 15:25
  15:20 28.5 29.2 39 4 0.0 1.0 15:20
  15:15 28.9 29.2 40 5 0.0 0.9 15:15
19.07.2018 15:10 28.5 28.7 41 5 0.0 0.4 15:10
  15:05 28.7 29.4 42 5 0.0 0.8 15:05
  15:00 28.8 29.3 39 5 0.0 1.0 15:00
  14:55 28.8 29.2 39 5 0.0 0.9 14:55
  14:50 28.9 29.0 43 5 0.0 0.2 14:50
  14:45 29.0 29.6 43 5 0.0 0.1 14:45
  14:40 28.9 29.3 44 5 0.0 0.1 14:40
  14:35 28.8 29.3 45 5 0.0 0.1 14:35
  14:30 27.8 29.1 40 5 0.0 0.5 14:30
  14:25 28.6 30.1 41 5 0.0 1.5 14:25
  14:20 28.6 30.0 40 5 0.0 1.2 14:20
  14:15 28.3 29.5 42 5 0.0 0.7 14:15
  14:10 27.8 29.0 41 5 0.0 0.3 14:10
  14:05 28.1 29.3 43 5 0.0 0.7 14:05
  14:00 28.1 29.4 43 5 0.0 0.6 14:00
  13:55 27.7 28.9 40 5 0.0 0.6 13:55
  13:50 28.2 29.5 40 5 0.0 1.1 13:50
  13:45 28.2 29.5 41 5 0.0 0.8 13:45
  13:40 28.2 29.6 41 5 0.0 1.1 13:40
  13:35 28.3 29.7 46 6 0.0 0.5 13:35
  13:30 28.3 29.6 47 6 0.0 0.5 13:30
  13:25 28.1 29.3 46 6 0.0 0.3 13:25
  13:20 27.8 29.9 46 5 0.0 0.8 13:20
  13:15 27.8 29.7 47 5 0.0 0.5 13:15
19.07.2018 13:10 27.2 29.1 43 5 0.0 0.5 13:10
  13:05 27.5 29.0 41 5 0.0 0.9 13:05
  13:00 27.8 29.3 42 6 0.0 0.5 13:00
  12:55 27.9 29.5 42 5 0.0 1.0 12:55
  12:50 27.5 28.8 43 5 0.0 0.4 12:50
  12:45 27.1 28.5 41 6 0.0 0.5 12:45
  12:40 28.0 29.5 43 6 0.0 0.9 12:40
  12:35 27.2 28.8 44 6 0.0 0.5 12:35
  12:30 27.3 28.9 44 5 0.0 0.7 12:30
  12:25 27.7 29.1 43 6 0.0 0.8 12:25
  12:20 27.7 29.2 44 6 0.0 0.6 12:20
  12:15 27.3 28.7 43 6 0.0 0.6 12:15
  12:10 27.2 28.7 44 6 0.0 0.7 12:10
  12:05 26.7 28.3 43 6 0.0 0.9 12:05
  12:00 27.0 28.3 43 6 0.0 0.5 12:00
  11:55 27.0 28.5 44 6 0.0 0.8 11:55
  11:50 27.0 28.7 45 6 0.0 1.0 11:50
  11:45 26.5 27.9 44 6 0.0 0.9 11:45
  11:40 26.7 28.0 45 6 0.0 1.1 11:40
  11:35 26.3 27.4 45 6 0.0 0.6 11:35
  11:30 26.5 27.9 46 6 0.0 0.8 11:30
  11:25 26.3 27.6 47 6 0.0 0.6 11:25
  11:20 26.2 27.2 46 6 0.0 0.8 11:20
  11:15 26.5 27.3 49 6 0.0 0.2 11:15
19.07.2018 11:10 25.9 27.2 47 6 0.0 0.7 11:10
  11:05 26.0 27.2 48 6 0.0 0.5 11:05
  11:00 25.4 26.8 47 6 0.0 0.5 11:00
  10:55 25.3 26.9 47 6 0.0 0.8 10:55
  10:50 25.1 26.4 48 6 0.0 0.5 10:50
  10:45 25.0 26.5 47 6 0.0 0.7 10:45
  10:40 25.3 26.7 48 6 0.0 0.8 10:40
  10:35 25.3 26.4 49 6 0.0 0.3 10:35
  10:30 24.6 25.9 47 6 0.0 0.6 10:30
  10:25 24.8 26.3 48 6 0.0 0.4 10:25
  10:20 24.6 25.8 48 6 0.0 0.5 10:20
  10:15 24.5 25.8 49 6 0.0 0.5 10:15
  10:10 24.3 25.4 50 6 0.0 0.4 10:10
  10:05 24.1 25.7 49 6 0.0 0.6 10:05
  10:00 24.2 25.5 50 6 0.0 0.3 10:00
  09:55 24.2 25.5 51 6 0.0 0.5 09:55
  09:50 23.6 24.9 52 6 0.0 0.2 09:50
  09:45 23.5 25.3 51 6 0.0 0.7 09:45
  09:40 23.4 24.7 52 6 0.0 0.6 09:40
  09:35 23.2 24.6 53 6 0.0 0.3 09:35
  09:30 22.8 24.5 53 6 0.0 0.8 09:30
  09:25 22.7 24.3 54 6 0.0 0.6 09:25
  09:20 22.7 23.9 55 6 0.0 0.2 09:20
  09:15 22.3 24.0 55 6 0.0 0.5 09:15
19.07.2018 09:10 22.3 23.7 56 6 0.0 0.3 09:10
  09:05 22.0 23.2 56 6 0.0 0.5 09:05
  09:00 21.8 23.0 57 6 0.0 0.3 09:00
  08:55 21.4 22.7 57 6 0.0 0.7 08:55
  08:50 21.3 22.6 57 6 0.0 0.7 08:50
  08:45 21.2 22.4 57 6 0.0 0.6 08:45
  08:40 21.2 22.3 59 6 0.0 0.2 08:40
  08:35 20.8 22.1 59 6 0.0 0.6 08:35
  08:30 20.6 22.0 60 6 0.0 0.6 08:30
  08:25 20.3 21.4 60 6 0.0 0.4 08:25
  08:20 20.1 21.1 61 6 0.0 0.6 08:20
  08:15 19.9 21.0 61 6 0.0 0.5 08:15
  08:10 19.8 20.6 63 6 0.0 0.2 08:10
  08:05 19.3 20.6 62 5 0.0 0.6 08:05
  08:00 19.2 20.2 63 5 0.0 0.5 08:00
  07:55 19.0 19.9 63 5 0.0 0.7 07:55
  07:50 19.0 19.6 63 5 0.0 0.6 07:50
  07:45 19.0 19.3 64 5 0.0 0.3 07:45
  07:40 18.8 18.9 65 5 0.0 0.2 07:40
  07:35 18.5 18.9 65 5 0.0 0.5 07:35
  07:30 18.3 18.4 66 5 0.0 0.3 07:30
  07:25 18.0 17.7 67 5 0.0 0.4 07:25
  07:20 17.9 17.9 67 5 0.0 0.3 07:20
  07:15 17.8 17.9 67 5 0.0 0.4 07:15
19.07.2018 07:10 17.7 17.4 67 5 0.0 0.5 07:10
  07:05 17.6 17.4 67 5 0.0 0.6 07:05
  07:00 17.5 17.0 67 5 0.0 0.3 07:00
  06:55 17.5 17.0 67 5 0.0 0.5 06:55
  06:50 17.4 17.1 68 5 0.0 0.6 06:50
  06:45 17.2 16.7 68 6 0.0 0.4 06:45
  06:40 16.9 16.1 69 6 0.0 0.6 06:40
  06:35 16.6 15.5 70 6 0.0 0.6 06:35
  06:30 16.4 15.4 70 7 0.0 0.5 06:30
  06:25 16.3 15.2 71 7 0.0 0.7 06:25
  06:20 16.2 15.0 71 8 0.0 0.6 06:20
  06:15 16.2 15.1 71 8 0.0 0.2 06:15
  06:10 16.2 15.1 70 7 0.0 0.3 06:10
  06:05 16.2 15.1 70 7 0.0 0.3 06:05
  06:00 16.2 15.1 70 7 0.0 0.3 06:00
  05:55 16.2 15.2 70 7 0.0 0.7 05:55
  05:50 16.2 15.2 70 6 0.0 0.4 05:50
  05:45 16.1 15.1 71 7 0.0 0.5 05:45
  05:40 16.2 15.2 70 7 0.0 0.5 05:40
  05:35 16.3 15.3 70 7 0.0 0.6 05:35
  05:30 16.3 15.4 69 7 0.0 0.5 05:30
  05:25 16.4 15.4 69 7 0.0 0.6 05:25
  05:20 16.4 15.3 68 6 0.0 0.6 05:20
  05:15 16.4 15.3 69 6 0.0 0.9 05:15
19.07.2018 05:10 16.4 14.9 69 6 0.0 0.8 05:10
  05:05 16.3 14.7 70 7 0.0 0.4 05:05
  05:00 16.3 14.6 70 7 0.0 0.7 05:00
  04:55 16.3 14.4 70 7 0.0 0.7 04:55
  04:50 16.3 14.2 70 8 0.0 0.7 04:50
  04:45 16.2 14.0 70 9 0.0 0.4 04:45
  04:40 16.3 14.1 70 16 0.0 0.0 04:40
  04:35 16.5 14.3 69 11 0.0 0.2 04:35
  04:30 16.6 14.4 68 9 0.0 0.4 04:30
  04:25 16.7 14.5 69 8 0.0 0.4 04:25
  04:20 16.6 14.4 69 7 0.0 0.5 04:20
  04:15 16.6 14.4 69 9 0.0 0.1 04:15
  04:10 16.7 14.5 68 8 0.0 0.3 04:10
  04:05 16.7 14.4 68 8 0.0 0.6 04:05
  04:00 16.7 14.2 68 8 0.0 0.5 04:00
  03:55 16.7 14.0 68 10 0.0 0.1 03:55
  03:50 16.8 14.2 68 18 0.0 0.0 03:50
  03:45 17.0 14.3 67 13 0.0 0.2 03:45
  03:40 17.0 14.4 67 12 0.0 0.1 03:40
  03:35 17.0 14.5 67 7 0.0 0.2 03:35
  03:30 16.9 14.4 67 8 0.0 0.2 03:30
  03:25 17.0 14.5 67 9 0.0 0.0 03:25
  03:20 17.1 14.6 67 9 0.0 0.0 03:20
  03:15 17.3 14.9 66 8 0.0 0.0 03:15
19.07.2018 03:10 17.5 15.0 65 7 0.0 0.1 03:10
  03:05 17.6 15.2 65 6 0.0 0.4 03:05
  03:00 17.6 15.2 65 6 0.0 0.3 03:00
  02:55 17.5 15.2 65 6 0.0 0.5 02:55
  02:50 17.5 15.2 66 8 0.0 0.0 02:50
  02:45 17.5 15.4 65 6 0.0 0.2 02:45
  02:40 17.6 15.5 65 7 0.0 0.1 02:40
  02:35 17.8 15.7 64 7 0.0 0.2 02:35
  02:30 17.9 16.0 64 6 0.0 0.1 02:30
  02:25 18.0 16.3 64 6 0.0 0.1 02:25
  02:20 18.1 16.5 63 5 0.0 0.5 02:20
  02:15 18.2 16.4 62 5 0.0 0.5 02:15
  02:10 18.2 16.4 61 5 0.0 0.4 02:10
  02:05 18.2 16.2 61 5 0.0 0.5 02:05
  02:00 18.2 15.8 62 5 0.0 0.3 02:00
  01:55 18.2 15.4 62 5 0.0 0.1 01:55
  01:50 18.3 15.4 61 5 0.0 0.1 01:50
  01:45 18.2 15.3 61 5 0.0 0.3 01:45
  01:40 18.0 15.2 62 5 0.0 0.2 01:40
  01:35 18.0 15.0 63 6 0.0 0.2 01:35
  01:30 17.8 14.9 63 5 0.0 0.0 01:30
  01:25 17.7 14.6 64 6 0.0 0.2 01:25
  01:20 17.6 14.5 64 7 0.0 0.0 01:20
  01:15 17.5 14.4 65 7 0.0 0.3 01:15
19.07.2018 01:10 17.3 14.2 65 10 0.0 0.0 01:10
  01:05 17.4 14.3 65 9 0.0 0.0 01:05
  01:00 17.4 14.3 64 9 0.0 0.0 01:00
  00:55 17.5 14.4 64 6 0.0 0.0 00:55
  00:50 17.5 14.4 64 6 0.0 0.0 00:50
  00:45 17.5 14.4 66 6 0.0 0.1 00:45
  00:40 17.3 14.3 67 9 0.0 0.0 00:40
  00:35 17.3 14.4 68 16 0.0 0.0 00:35
  00:30 17.4 14.5 68 37 0.0 0.0 00:30
  00:25 17.6 14.7 67 14 0.0 0.0 00:25
  00:20 17.8 14.8 66 21 0.0 0.0 00:20
  00:15 18.2 14.9 64 15 0.0 0.0 00:15
  00:10 18.4 15.1 63 9 0.0 0.0 00:10
  00:05 18.6 15.2 62 7 0.0 0.0 00:05
  00:00 18.8 15.4 61 7 0.0 0.0 00:00
18.07.2018 23:55 18.9 15.6 61 7 0.0 0.0 23:55
  23:50 19.1 15.8 60 11 0.0 0.0 23:50
  23:45 19.4 16.0 58 5 0.0 0.0 23:45
  23:40 19.5 16.2 57 5 0.0 0.0 23:40
  23:35 19.6 16.1 57 4 0.0 0.0 23:35
  23:30 19.7 16.3 57 4 0.0 0.0 23:30
  23:25 19.8 16.3 57 4 0.0 0.0 23:25
  23:20 20.0 16.2 57 4 0.0 0.0 23:20
  23:15 20.0 16.2 58 5 0.0 0.0 23:15
  23:10 20.0 16.2 58 4 0.0 0.2 23:10
  23:05 20.1 16.3 58 4 0.0 0.2 23:05
  23:00 20.3 16.3 58 5 0.0 0.0 23:00
  22:55 20.5 16.5 57 4 0.0 0.0 22:55
  22:50 20.7 16.7 56 4 0.0 0.0 22:50
  22:45 20.8 16.8 55 4 0.0 0.0 22:45
  22:40 21.0 17.0 55 4 0.0 0.0 22:40
  22:35 21.0 17.0 55 3 0.0 0.1 22:35
  22:30 21.1 17.1 56 4 0.0 0.2 22:30
  22:25 21.2 17.1 56 5 0.0 0.0 22:25
  22:20 21.5 17.4 55 5 0.0 0.0 22:20
  22:15 21.9 17.6 53 4 0.0 0.0 22:15
  22:10 22.2 17.9 51 3 0.0 0.0 22:10
  22:05 22.3 18.2 50 3 0.0 0.0 22:05
  22:00 22.5 18.5 50 3 0.0 0.0 22:00
18.07.2018 21:55 22.7 18.9 50 3 0.0 0.0 21:55
  21:50 22.9 19.2 49 3 0.0 0.0 21:50
  21:45 23.1 19.6 49 3 0.0 0.0 21:45
  21:40 23.2 20.0 48 3 0.0 0.3 21:40
  21:35 23.3 20.0 48 3 0.0 0.1 21:35
  21:30 23.5 20.1 48 3 0.0 0.3 21:30
  21:25 23.5 20.1 48 3 0.0 0.2 21:25
  21:20 23.6 20.2 48 3 0.0 0.2 21:20
  21:15 23.9 20.6 48 3 0.0 0.0 21:15
  21:10 24.3 21.1 47 3 0.0 0.0 21:10
  21:05 24.6 21.5 47 3 0.0 0.1 21:05
  21:00 24.8 21.9 46 3 0.0 0.1 21:00
  20:55 25.1 22.1 46 3 0.0 0.0 20:55
  20:50 25.5 22.5 45 3 0.0 0.1 20:50
  20:45 25.8 23.1 45 3 0.0 0.0 20:45
  20:40 26.0 23.5 44 3 0.0 0.1 20:40
  20:35 26.1 23.6 43 3 0.0 0.1 20:35
  20:30 26.5 24.4 43 3 0.0 0.2 20:30
  20:25 26.6 24.2 43 3 0.0 0.3 20:25
  20:20 26.7 25.1 42 3 0.0 0.6 20:20
  20:15 26.9 24.9 42 3 0.0 0.4 20:15
  20:10 26.8 24.5 42 3 0.0 0.1 20:10
  20:05 26.8 25.3 42 3 0.0 0.4 20:05
  20:00 26.9 25.0 42 3 0.0 0.2 20:00
18.07.2018 19:55 27.1 25.5 42 3 0.0 0.2 19:55
  19:50 27.0 26.1 42 3 0.0 0.6 19:50
  19:45 27.0 26.0 42 3 0.0 0.6 19:45
  19:40 27.2 26.0 42 3 0.0 0.2 19:40
  19:35 27.3 25.3 41 3 0.0 0.3 19:35
  19:30 27.5 26.3 41 3 0.0 0.6 19:30
  19:25 27.7 26.6 41 3 0.0 0.5 19:25
  19:20 27.7 26.7 41 3 0.0 0.7 19:20
  19:15 27.8 26.8 41 3 0.0 0.7 19:15
  19:10 28.0 26.9 41 3 0.0 0.6 19:10
  19:05 28.1 27.1 41 3 0.0 0.4 19:05
  19:00 28.2 27.0 40 3 0.0 0.5 19:00
  18:55 28.2 27.1 40 3 0.0 0.8 18:55
  18:50 28.5 26.7 41 3 0.0 0.1 18:50
  18:45 28.4 27.2 40 3 0.0 0.5 18:45
  18:40 28.4 26.9 40 3 0.0 0.2 18:40
  18:35 28.4 27.4 40 3 0.0 0.5 18:35
  18:30 28.2 27.4 40 3 0.0 0.8 18:30
  18:25 28.2 27.4 40 3 0.0 0.6 18:25
  18:20 28.3 27.4 40 3 0.0 0.8 18:20
  18:15 28.3 27.7 40 3 0.0 0.8 18:15
  18:10 28.3 26.9 40 3 0.0 0.3 18:10
  18:05 28.0 27.3 39 3 0.0 0.1 18:05
  18:00 28.3 27.7 39 3 0.0 0.7 18:00
18.07.2018 17:55 28.4 27.9 40 3 0.0 0.9 17:55
  17:50 28.4 27.8 39 3 0.0 0.4 17:50
  17:45 28.6 28.0 40 3 0.0 0.8 17:45
  17:40 28.2 28.0 39 3 0.0 0.9 17:40
  17:35 28.6 28.0 39 3 0.0 0.4 17:35
  17:30 28.3 27.8 39 3 0.0 0.9 17:30
  17:25 28.5 27.8 39 3 0.0 0.5 17:25
  17:20 28.7 28.0 39 3 0.0 0.5 17:20
  17:15 28.7 28.4 39 3 0.0 0.8 17:15
    Temp.
(2 m)
Temp.
(20 cm)
Luftfeuchte Blattnässe Nieder-
schlag
Wind  
[°C] [°C] [%] [%] [mm] [m/s]
 
  Ø 22.9 22.0 53 5 - 0.4 Ø
  Min. 16.1 14.0 - - - - Min.
  Max. 29.2 30.1 - - - - Max.
  - - - - 0.0 -
Quelle: Agrarmeteorologie Rheinland-Pfalz,
alle Angaben ohne Gewähr!
Zuletzt geändert: 19.07.18 - 17:20 Uhr